Aviation Digital Data Service (ADDS)

Output produced by METARs form (1229 UTC 20 July 2017)
found at http://www.aviationweather.gov/adds/metars/
 
METAR text: KAMW 201153Z AUTO 24007KT 10SM CLR 26/23 A2993 RMK AO2 PK WND 21029/1120 SLP124 T02560228 10283 20244 53002
Conditions at: KAMW (AMES , IA, US) observed 1153 UTC 20 July 2017
Temperature: 25.6°C (78°F)
Dewpoint: 22.8°C (73°F) [RH = 85%]
Pressure (altimeter): 29.93 inches Hg (1013.6 mb)
[Sea-level pressure: 1012.4 mb]
Winds: from the WSW (240 degrees) at 8 MPH (7 knots; 3.6 m/s)
Visibility: 10 or more miles (16+ km)
Ceiling: at least 12,000 feet AGL
Clouds: sky clear below 12,000 feet AGL
Weather: automated observation with no human augmentation;
there may or may not be significant weather present at this time